createdAt,value
2018-07-14T00:00:12.715Z,10.00
2018-07-14T00:01:16.823Z,9.85
2018-07-14T00:02:20.862Z,10.38
2018-07-14T00:03:25.816Z,9.68
2018-07-14T00:04:29.796Z,9.23
2018-07-14T00:05:33.796Z,9.83
2018-07-14T00:06:37.834Z,9.95
2018-07-14T00:07:41.869Z,9.58
2018-07-14T00:08:45.982Z,8.53
2018-07-14T00:09:49.979Z,9.98
2018-07-14T00:10:53.994Z,9.75
2018-07-14T00:11:58.066Z,9.30
2018-07-14T00:13:02.136Z,10.32
2018-07-14T00:14:06.187Z,10.28
2018-07-14T00:15:10.239Z,9.23
2018-07-14T00:16:14.258Z,11.73
2018-07-14T00:17:18.270Z,10.45
2018-07-14T00:18:22.254Z,9.53
2018-07-14T00:19:26.277Z,10.55
2018-07-14T00:20:31.355Z,10.85
2018-07-14T00:21:35.342Z,10.30
2018-07-14T00:22:39.376Z,10.32
2018-07-14T00:23:43.368Z,10.10
2018-07-14T00:24:47.426Z,10.58
2018-07-14T00:25:56.732Z,10.65
2018-07-14T00:27:00.751Z,10.65
2018-07-14T00:28:04.787Z,10.48
2018-07-14T00:29:08.826Z,10.18
2018-07-14T00:30:12.871Z,10.90
2018-07-14T00:31:17.073Z,10.60
2018-07-14T00:32:21.085Z,11.83
2018-07-14T00:33:25.143Z,10.63
2018-07-14T00:34:29.158Z,10.50
2018-07-14T00:35:33.173Z,15.48
2018-07-14T00:36:37.256Z,9.50
2018-07-14T00:37:41.335Z,9.48
2018-07-14T00:38:45.334Z,10.28
2018-07-14T00:39:49.400Z,9.25
2018-07-14T00:40:53.437Z,10.68
2018-07-14T00:41:57.480Z,9.60
2018-07-14T00:43:01.641Z,10.40
2018-07-14T00:44:05.742Z,10.55
2018-07-14T00:45:09.870Z,10.48
2018-07-14T00:46:13.935Z,10.43
2018-07-14T00:47:18.027Z,10.98
2018-07-14T00:48:22.063Z,10.48
2018-07-14T00:49:26.154Z,10.18
2018-07-14T00:50:30.196Z,10.45
2018-07-14T00:51:34.375Z,11.00
2018-07-14T00:52:38.365Z,11.38
2018-07-14T00:53:42.377Z,9.30
2018-07-14T00:54:46.412Z,13.35
2018-07-14T00:55:50.464Z,10.85
2018-07-14T00:56:54.462Z,10.72
2018-07-14T00:57:58.507Z,10.48
2018-07-14T00:59:02.528Z,10.43
2018-07-14T01:00:06.577Z,10.43
2018-07-14T01:01:10.568Z,11.43
2018-07-14T01:02:14.572Z,9.75
2018-07-14T01:03:18.580Z,11.63
2018-07-14T01:04:22.611Z,13.95
2018-07-14T01:05:26.853Z,13.43
2018-07-14T01:06:30.933Z,13.55
2018-07-14T01:07:34.934Z,12.58
2018-07-14T01:08:38.968Z,12.07
2018-07-14T01:09:43.083Z,10.80
2018-07-14T01:10:47.189Z,11.12
2018-07-14T01:11:51.191Z,9.93
2018-07-14T01:12:55.216Z,10.93
2018-07-14T01:13:59.250Z,11.03
2018-07-14T01:15:03.407Z,11.45
2018-07-14T01:16:07.440Z,10.18
2018-07-14T01:17:11.450Z,10.20
2018-07-14T01:18:15.481Z,11.20
2018-07-14T01:19:19.531Z,11.83
2018-07-14T01:20:23.594Z,11.10
2018-07-14T01:21:27.626Z,10.50
2018-07-14T01:22:31.754Z,11.03
2018-07-14T01:23:35.757Z,10.20
2018-07-14T01:24:39.757Z,10.28
2018-07-14T01:25:43.970Z,10.40
2018-07-14T01:26:48.057Z,12.75
2018-07-14T01:27:52.066Z,11.08
2018-07-14T01:28:56.187Z,9.88
2018-07-14T01:30:00.193Z,10.20
2018-07-14T01:31:04.206Z,10.90
2018-07-14T01:32:08.253Z,11.83
2018-07-14T01:33:12.323Z,9.70
2018-07-14T01:34:16.355Z,11.63
2018-07-14T01:35:20.369Z,9.90
2018-07-14T01:36:24.410Z,9.63
2018-07-14T01:37:28.386Z,10.48
2018-07-14T01:38:32.431Z,9.15
2018-07-14T01:39:36.481Z,9.60
2018-07-14T01:40:40.568Z,10.18
2018-07-14T01:41:44.604Z,9.05
2018-07-14T01:42:48.626Z,9.70
2018-07-14T01:43:52.638Z,10.15
2018-07-14T01:44:56.727Z,10.43
2018-07-14T01:46:00.834Z,9.38
2018-07-14T01:47:05.004Z,8.28
2018-07-14T01:48:09.029Z,9.53
2018-07-14T01:49:13.067Z,9.28
2018-07-14T01:50:17.101Z,10.20
2018-07-14T01:51:21.140Z,9.13
2018-07-14T01:52:25.161Z,9.23
2018-07-14T01:53:29.157Z,8.75
2018-07-14T01:54:33.159Z,9.30
2018-07-14T01:55:37.230Z,8.50
2018-07-14T01:56:41.228Z,7.78
2018-07-14T01:57:45.281Z,9.33
2018-07-14T01:58:49.565Z,8.43
2018-07-14T01:59:53.591Z,8.65
2018-07-14T02:00:57.562Z,8.10
2018-07-14T02:02:01.572Z,8.65
2018-07-14T02:03:06.054Z,8.85
2018-07-14T02:04:10.071Z,8.53
2018-07-14T02:05:14.067Z,8.20
2018-07-14T02:06:18.061Z,8.28
2018-07-14T02:07:22.067Z,8.35
2018-07-14T02:08:26.109Z,8.93
2018-07-14T02:09:30.097Z,8.18
2018-07-14T02:10:34.186Z,8.08
2018-07-14T02:11:38.260Z,7.97
2018-07-14T02:12:42.233Z,8.15
2018-07-14T02:13:46.213Z,8.60
2018-07-14T02:14:50.205Z,8.50
2018-07-14T02:15:54.242Z,8.50
2018-07-14T02:16:58.330Z,7.58
2018-07-14T02:18:02.341Z,7.72
2018-07-14T02:19:06.701Z,8.13
2018-07-14T02:20:10.691Z,7.60
2018-07-14T02:21:14.942Z,8.08
2018-07-14T02:22:18.899Z,7.65
2018-07-14T02:23:22.923Z,7.62
2018-07-14T02:24:26.905Z,7.33
2018-07-14T02:25:30.877Z,7.53
2018-07-14T02:26:34.862Z,8.10
2018-07-14T02:27:38.854Z,8.10
2018-07-14T02:28:42.905Z,8.10
2018-07-14T02:29:46.907Z,7.40
2018-07-14T02:30:50.926Z,7.45
2018-07-14T02:31:54.938Z,8.00
2018-07-14T02:32:58.930Z,7.80
2018-07-14T02:34:02.923Z,7.78
2018-07-14T02:35:07.194Z,7.40
2018-07-14T02:36:11.429Z,8.20
2018-07-14T02:37:15.692Z,8.13
2018-07-14T02:38:19.680Z,7.78
2018-07-14T02:39:23.729Z,6.90
2018-07-14T02:40:27.723Z,7.12
2018-07-14T02:41:31.836Z,7.12
2018-07-14T02:42:35.814Z,7.58
2018-07-14T02:43:39.856Z,7.55
2018-07-14T02:44:43.936Z,8.35
2018-07-14T02:45:47.919Z,8.13
2018-07-14T02:46:51.889Z,7.20
2018-07-14T02:47:55.866Z,6.50
2018-07-14T02:48:59.923Z,8.28
2018-07-14T02:50:03.986Z,7.55
2018-07-14T02:51:07.990Z,7.30
2018-07-14T02:52:11.962Z,7.90
2018-07-14T02:53:16.023Z,8.33
2018-07-14T02:54:20.044Z,7.00
2018-07-14T02:55:24.063Z,8.10
2018-07-14T02:56:28.066Z,6.92
2018-07-14T02:57:32.025Z,7.85
2018-07-14T02:58:36.052Z,7.20
2018-07-14T02:59:40.117Z,7.58
2018-07-14T03:00:44.063Z,7.40
2018-07-14T03:01:48.126Z,7.87
2018-07-14T03:02:52.126Z,7.35
2018-07-14T03:03:56.104Z,7.00
2018-07-14T03:05:00.145Z,6.80
2018-07-14T03:06:04.135Z,7.05
2018-07-14T03:07:08.114Z,8.45
2018-07-14T03:08:12.126Z,8.83
2018-07-14T03:09:16.481Z,7.12
2018-07-14T03:10:20.486Z,7.37
2018-07-14T03:11:24.507Z,6.92
2018-07-14T03:12:28.499Z,7.60
2018-07-14T03:13:34.632Z,8.13
2018-07-14T03:14:38.800Z,8.30
2018-07-14T03:15:42.822Z,7.65
2018-07-14T03:16:46.804Z,7.85
2018-07-14T03:17:50.801Z,8.10
2018-07-14T03:18:54.856Z,7.00
2018-07-14T03:19:58.880Z,7.50
2018-07-14T03:21:02.874Z,7.90
2018-07-14T03:22:06.853Z,8.03
2018-07-14T03:23:10.893Z,8.10
2018-07-14T03:24:14.902Z,8.03
2018-07-14T03:25:18.912Z,8.15
2018-07-14T03:26:22.930Z,7.40
2018-07-14T03:27:28.307Z,8.13
2018-07-14T03:28:33.314Z,7.55
2018-07-14T03:29:37.331Z,6.70
2018-07-14T03:30:41.370Z,7.67
2018-07-14T03:31:45.378Z,7.37
2018-07-14T03:32:49.431Z,7.65
2018-07-14T03:33:53.411Z,8.00
2018-07-14T03:34:57.405Z,8.38
2018-07-14T03:36:01.386Z,7.95
2018-07-14T03:37:05.434Z,8.45
2018-07-14T03:38:09.495Z,7.35
2018-07-14T03:39:13.460Z,7.72
2018-07-14T03:40:17.486Z,8.65
2018-07-14T03:41:21.514Z,7.20
2018-07-14T03:42:25.543Z,8.43
2018-07-14T03:43:29.559Z,7.95
2018-07-14T03:44:33.570Z,7.05
2018-07-14T03:45:37.590Z,7.67
2018-07-14T03:46:41.639Z,9.58
2018-07-14T03:47:45.671Z,8.30
2018-07-14T03:48:49.680Z,7.90
2018-07-14T03:49:53.687Z,7.17
2018-07-14T03:50:57.790Z,7.92
2018-07-14T03:52:01.902Z,7.92
2018-07-14T03:53:05.902Z,8.08
2018-07-14T03:54:09.983Z,8.00
2018-07-14T03:55:14.207Z,8.70
2018-07-14T03:56:18.214Z,7.10
2018-07-14T03:57:22.326Z,8.10
2018-07-14T03:58:26.479Z,8.75
2018-07-14T03:59:30.632Z,7.70
2018-07-14T04:00:34.613Z,7.58
2018-07-14T04:01:38.618Z,7.12
2018-07-14T04:02:42.649Z,8.60
2018-07-14T04:03:46.722Z,8.30
2018-07-14T04:04:50.769Z,8.08
2018-07-14T04:05:54.782Z,8.70
2018-07-14T04:06:58.778Z,7.95
2018-07-14T04:08:02.786Z,9.18
2018-07-14T04:09:07.123Z,7.97
2018-07-14T04:10:11.181Z,7.70
2018-07-14T04:11:15.152Z,8.98
2018-07-14T04:12:19.180Z,8.43
2018-07-14T04:13:23.163Z,8.95
2018-07-14T04:14:27.209Z,8.50
2018-07-14T04:15:31.234Z,9.10
2018-07-14T04:16:35.272Z,7.47
2018-07-14T04:17:39.339Z,9.30
2018-07-14T04:18:43.335Z,8.18
2018-07-14T04:19:47.367Z,8.63
2018-07-14T04:20:51.444Z,8.33
2018-07-14T04:21:55.496Z,8.28
2018-07-14T04:23:00.011Z,8.68
2018-07-14T04:24:04.009Z,7.60
2018-07-14T04:25:07.986Z,9.20
2018-07-14T04:26:11.959Z,8.58
2018-07-14T04:27:15.925Z,8.68
2018-07-14T04:28:19.927Z,8.75
2018-07-14T04:29:23.921Z,8.85
2018-07-14T04:30:28.011Z,8.90
2018-07-14T04:31:32.027Z,8.85
2018-07-14T04:32:36.034Z,8.55
2018-07-14T04:33:40.011Z,9.25
2018-07-14T04:34:44.012Z,8.90
2018-07-14T04:35:48.006Z,9.13
2018-07-14T04:36:52.034Z,8.63
2018-07-14T04:37:56.053Z,8.50
2018-07-14T04:39:00.015Z,8.18
2018-07-14T04:40:04.057Z,9.53
2018-07-14T04:41:08.050Z,7.20
2018-07-14T04:42:12.082Z,8.78
2018-07-14T04:43:16.060Z,8.75
2018-07-14T04:44:20.071Z,7.45
2018-07-14T04:45:24.045Z,7.60
2018-07-14T04:46:28.063Z,8.50
2018-07-14T04:47:32.054Z,9.50
2018-07-14T04:48:36.065Z,11.00
2018-07-14T04:49:40.099Z,9.05
2018-07-14T04:50:44.100Z,8.68
2018-07-14T04:51:48.169Z,7.83
2018-07-14T04:52:52.211Z,9.05
2018-07-14T04:53:56.248Z,8.18
2018-07-14T04:55:00.283Z,8.18
2018-07-14T04:56:04.339Z,8.65
2018-07-14T04:57:08.363Z,8.88
2018-07-14T04:58:12.393Z,8.08
2018-07-14T04:59:16.431Z,7.85
2018-07-14T05:00:20.436Z,7.45
2018-07-14T05:01:24.476Z,8.68
2018-07-14T05:02:28.475Z,8.78
2018-07-14T05:03:32.521Z,7.95
2018-07-14T05:04:36.558Z,8.78
2018-07-14T05:05:40.578Z,8.50
2018-07-14T05:06:44.619Z,8.38
2018-07-14T05:07:48.668Z,9.30
2018-07-14T05:08:52.721Z,8.63
2018-07-14T05:09:56.706Z,8.83
2018-07-14T05:11:00.750Z,7.42
2018-07-14T05:12:04.764Z,7.80
2018-07-14T05:13:08.753Z,8.45
2018-07-14T05:14:12.743Z,7.80
2018-07-14T05:15:16.795Z,8.45
2018-07-14T05:16:20.802Z,7.22
2018-07-14T05:17:24.822Z,8.35
2018-07-14T05:18:28.809Z,8.65
2018-07-14T05:19:32.858Z,7.30
2018-07-14T05:20:36.856Z,7.45
2018-07-14T05:21:40.848Z,8.15
2018-07-14T05:22:44.891Z,6.50
2018-07-14T05:23:48.887Z,6.53
2018-07-14T05:24:52.866Z,6.67
2018-07-14T05:25:56.926Z,8.60
2018-07-14T05:27:00.948Z,6.75
2018-07-14T05:28:05.274Z,7.12
2018-07-14T05:29:09.258Z,6.05
2018-07-14T05:30:13.258Z,6.58
2018-07-14T05:31:17.292Z,7.15
2018-07-14T05:32:21.293Z,7.05
2018-07-14T05:33:25.340Z,7.12
2018-07-14T05:34:29.334Z,6.05
2018-07-14T05:35:33.665Z,6.42
2018-07-14T05:36:38.921Z,6.10
2018-07-14T05:37:42.873Z,6.55
2018-07-14T05:38:46.939Z,5.75
2018-07-14T05:39:50.948Z,6.33
2018-07-14T05:40:55.036Z,6.20
2018-07-14T05:41:59.186Z,7.00
2018-07-14T05:43:03.261Z,7.15
2018-07-14T05:44:07.386Z,6.12
2018-07-14T05:45:11.324Z,6.83
2018-07-14T05:46:15.343Z,6.65
2018-07-14T05:47:19.356Z,6.92
2018-07-14T05:48:23.371Z,6.90
2018-07-14T05:49:27.391Z,6.78
2018-07-14T05:50:31.477Z,7.03
2018-07-14T05:51:35.475Z,6.70
2018-07-14T05:52:39.473Z,6.65
2018-07-14T05:53:43.476Z,7.45
2018-07-14T05:54:47.499Z,7.33
2018-07-14T05:55:51.518Z,7.28
2018-07-14T05:56:55.526Z,7.00
2018-07-14T05:58:06.056Z,7.55
2018-07-14T05:59:10.088Z,7.40
2018-07-14T06:00:14.159Z,6.60
2018-07-14T06:01:18.235Z,6.87
2018-07-14T06:02:22.247Z,7.17
2018-07-14T06:03:26.253Z,6.45
2018-07-14T06:04:30.265Z,7.03
2018-07-14T06:05:34.279Z,6.50
2018-07-14T06:06:38.306Z,6.90
2018-07-14T06:07:42.332Z,6.53
2018-07-14T06:08:46.369Z,6.45
2018-07-14T06:09:50.350Z,6.45
2018-07-14T06:10:54.613Z,6.17
2018-07-14T06:11:59.761Z,7.20
2018-07-14T06:13:03.842Z,7.45
2018-07-14T06:14:07.874Z,6.80
2018-07-14T06:15:11.985Z,6.37
2018-07-14T06:16:15.960Z,6.85
2018-07-14T06:17:20.001Z,8.70
2018-07-14T06:18:23.950Z,6.85
2018-07-14T06:19:28.023Z,7.00
2018-07-14T06:20:32.061Z,6.72
2018-07-14T06:21:36.127Z,7.92
2018-07-14T06:22:40.134Z,7.45
2018-07-14T06:23:44.122Z,7.53
2018-07-14T06:24:48.112Z,6.33
2018-07-14T06:25:52.133Z,8.75
2018-07-14T06:26:56.275Z,6.28
2018-07-14T06:28:00.298Z,7.72
2018-07-14T06:29:04.347Z,6.95
2018-07-14T06:30:08.729Z,7.20
2018-07-14T06:31:12.723Z,7.08
2018-07-14T06:32:16.900Z,6.33
2018-07-14T06:33:20.915Z,7.05
2018-07-14T06:34:24.936Z,7.85
2018-07-14T06:35:28.910Z,7.55
2018-07-14T06:36:32.947Z,7.30
2018-07-14T06:37:36.957Z,6.95
2018-07-14T06:38:41.060Z,6.75
2018-07-14T06:39:45.066Z,7.12
2018-07-14T06:40:49.265Z,6.15
2018-07-14T06:41:53.277Z,6.30
2018-07-14T06:42:57.268Z,8.73
2018-07-14T06:44:01.361Z,7.28
2018-07-14T06:45:05.458Z,7.15
2018-07-14T06:46:09.531Z,7.03
2018-07-14T06:47:13.547Z,6.90
2018-07-14T06:48:17.738Z,5.60
2018-07-14T06:49:27.203Z,6.50
2018-07-14T06:50:36.539Z,6.35
2018-07-14T06:51:40.547Z,6.30
2018-07-14T06:52:44.650Z,7.08
2018-07-14T06:53:49.311Z,10.13
2018-07-14T06:54:53.616Z,9.00
2018-07-14T06:56:00.028Z,6.22
2018-07-14T06:57:04.038Z,6.03
2018-07-14T06:58:08.070Z,8.10
2018-07-14T06:59:12.096Z,6.65
2018-07-14T07:00:16.132Z,6.47
2018-07-14T07:01:20.149Z,6.33
2018-07-14T07:02:24.392Z,6.17
2018-07-14T07:03:28.477Z,6.97
2018-07-14T07:04:32.429Z,6.60
2018-07-14T07:05:36.735Z,5.55
2018-07-14T07:06:40.803Z,5.92
2018-07-14T07:07:44.785Z,5.72
2018-07-14T07:08:48.861Z,6.35
2018-07-14T07:09:52.826Z,7.05
2018-07-14T07:10:56.878Z,7.60
2018-07-14T07:12:00.957Z,6.62
2018-07-14T07:13:05.016Z,6.70
2018-07-14T07:14:09.068Z,6.97
2018-07-14T07:15:13.092Z,6.60
2018-07-14T07:16:17.101Z,6.42
2018-07-14T07:17:21.127Z,5.10
2018-07-14T07:18:25.139Z,10.72
2018-07-14T07:19:29.131Z,8.25
2018-07-14T07:20:33.198Z,7.60
2018-07-14T07:21:37.258Z,5.33
2018-07-14T07:22:41.307Z,5.50
2018-07-14T07:23:45.374Z,6.20
2018-07-14T07:24:49.343Z,4.75
2018-07-14T07:25:53.382Z,5.85
2018-07-14T07:26:57.368Z,6.37
2018-07-14T07:28:01.446Z,6.70
2018-07-14T07:29:05.447Z,5.85
2018-07-14T07:30:09.480Z,6.55
2018-07-14T07:31:13.512Z,6.22
2018-07-14T07:32:17.539Z,5.92
2018-07-14T07:33:21.719Z,6.17
2018-07-14T07:34:25.754Z,7.12
2018-07-14T07:35:29.819Z,5.72
2018-07-14T07:36:33.835Z,7.15
2018-07-14T07:37:37.811Z,6.15
2018-07-14T07:38:41.847Z,5.90
2018-07-14T07:39:45.842Z,5.83
2018-07-14T07:40:49.898Z,6.22
2018-07-14T07:41:53.895Z,5.62
2018-07-14T07:42:57.997Z,6.70
2018-07-14T07:44:02.072Z,6.72
2018-07-14T07:45:06.172Z,8.03
2018-07-14T07:46:10.172Z,6.17
2018-07-14T07:47:14.175Z,6.20
2018-07-14T07:48:18.175Z,5.90
2018-07-14T07:49:22.190Z,5.78
2018-07-14T07:50:26.246Z,7.22
2018-07-14T07:51:30.283Z,6.28
2018-07-14T07:52:34.337Z,5.65
2018-07-14T07:53:38.478Z,5.92
2018-07-14T07:54:42.487Z,6.15
2018-07-14T07:55:46.475Z,8.70
2018-07-14T07:56:50.504Z,5.85
2018-07-14T07:57:54.557Z,5.92
2018-07-14T07:58:58.634Z,6.30
2018-07-14T08:00:02.654Z,5.55
2018-07-14T08:01:06.782Z,9.48
2018-07-14T08:02:11.071Z,5.90
2018-07-14T08:03:15.171Z,7.40
2018-07-14T08:04:19.292Z,5.70
2018-07-14T08:05:23.408Z,6.00
2018-07-14T08:06:27.457Z,13.20
2018-07-14T08:07:31.566Z,6.35
2018-07-14T08:08:35.588Z,5.90
2018-07-14T08:09:39.796Z,5.42
2018-07-14T08:10:43.803Z,5.22
2018-07-14T08:11:47.847Z,6.03
2018-07-14T08:12:51.877Z,5.40
2018-07-14T08:13:55.890Z,4.85
2018-07-14T08:14:59.848Z,4.75
2018-07-14T08:16:03.900Z,5.75
2018-07-14T08:17:07.880Z,5.05
2018-07-14T08:18:11.917Z,5.95
2018-07-14T08:19:15.984Z,7.35
2018-07-14T08:20:20.021Z,5.78
2018-07-14T08:21:24.038Z,5.30
2018-07-14T08:22:28.049Z,5.83
2018-07-14T08:23:32.092Z,7.37
2018-07-14T08:24:36.250Z,6.65
2018-07-14T08:25:40.270Z,6.03
2018-07-14T08:26:44.292Z,5.12
2018-07-14T08:27:48.313Z,5.55
2018-07-14T08:28:52.447Z,4.60
2018-07-14T08:29:56.475Z,6.00
2018-07-14T08:31:00.513Z,4.40
2018-07-14T08:32:04.564Z,4.83
2018-07-14T08:33:08.570Z,5.30
2018-07-14T08:34:12.564Z,5.30
2018-07-14T08:35:16.589Z,5.35
2018-07-14T08:36:20.708Z,5.30
2018-07-14T08:37:24.780Z,5.53
2018-07-14T08:38:28.781Z,6.28
2018-07-14T08:39:32.769Z,6.20
2018-07-14T08:40:36.777Z,6.53
2018-07-14T08:41:40.788Z,5.83
2018-07-14T08:42:44.769Z,5.55
2018-07-14T08:43:48.848Z,5.65
2018-07-14T08:44:52.783Z,5.75
2018-07-14T08:45:56.774Z,7.40
2018-07-14T08:47:00.808Z,4.85
2018-07-14T08:48:04.888Z,6.90
2018-07-14T08:49:08.908Z,5.50
2018-07-14T08:50:12.927Z,8.38
2018-07-14T08:51:17.021Z,5.28
2018-07-14T08:52:21.011Z,5.60
2018-07-14T08:53:25.063Z,8.05
2018-07-14T08:54:29.082Z,5.92
2018-07-14T08:55:33.081Z,4.75
2018-07-14T08:56:37.188Z,6.15
2018-07-14T08:57:41.265Z,4.97
2018-07-14T08:58:45.337Z,5.33
2018-07-14T08:59:49.354Z,4.95
2018-07-14T09:00:53.413Z,4.80
2018-07-14T09:01:57.530Z,5.10
2018-07-14T09:03:01.599Z,5.95
2018-07-14T09:04:05.711Z,6.17
2018-07-14T09:05:09.748Z,5.40
2018-07-14T09:06:13.746Z,7.12
2018-07-14T09:07:17.852Z,5.22
2018-07-14T09:08:21.965Z,5.70
2018-07-14T09:09:25.991Z,4.90
2018-07-14T09:10:30.041Z,5.47
2018-07-14T09:11:34.090Z,5.28
2018-07-14T09:12:38.123Z,5.58
2018-07-14T09:13:42.217Z,5.12
2018-07-14T09:14:46.332Z,4.80
2018-07-14T09:15:50.336Z,5.47
2018-07-14T09:16:54.412Z,5.00
2018-07-14T09:17:58.461Z,5.28
2018-07-14T09:19:02.457Z,4.92
2018-07-14T09:20:06.523Z,5.70
2018-07-14T09:21:10.508Z,4.90
2018-07-14T09:22:14.634Z,5.30
2018-07-14T09:23:18.648Z,4.90
2018-07-14T09:24:22.709Z,5.17
2018-07-14T09:25:26.742Z,6.20
2018-07-14T09:26:30.914Z,5.40
2018-07-14T09:27:34.910Z,5.30
2018-07-14T09:28:38.904Z,4.92
2018-07-14T09:29:42.913Z,5.10
2018-07-14T09:30:46.926Z,4.90
2018-07-14T09:31:50.959Z,5.45
2018-07-14T09:32:54.978Z,5.28
2018-07-14T09:33:59.034Z,5.22
2018-07-14T09:35:03.080Z,5.42
2018-07-14T09:36:07.072Z,4.42
2018-07-14T09:37:11.055Z,5.22
2018-07-14T09:38:15.052Z,5.28
2018-07-14T09:39:19.090Z,5.45
2018-07-14T09:40:23.227Z,5.83
2018-07-14T09:41:27.245Z,7.65
2018-07-14T09:42:31.252Z,8.65
2018-07-14T09:43:35.470Z,5.20
2018-07-14T09:44:39.494Z,5.87
2018-07-14T09:45:43.474Z,4.58
2018-07-14T09:46:47.539Z,5.55
2018-07-14T09:47:51.702Z,5.78
2018-07-14T09:48:55.680Z,5.15
2018-07-14T09:49:59.669Z,5.10
2018-07-14T09:51:03.743Z,5.92
2018-07-14T09:52:07.772Z,7.10
2018-07-14T09:53:11.810Z,6.95
2018-07-14T09:54:15.973Z,5.17
2018-07-14T09:55:20.156Z,5.97
2018-07-14T09:56:24.239Z,5.40
2018-07-14T09:57:28.265Z,5.53
2018-07-14T09:58:32.289Z,5.55
2018-07-14T09:59:36.285Z,5.85
2018-07-14T10:00:45.731Z,5.55
2018-07-14T10:01:49.775Z,5.65
2018-07-14T10:02:53.759Z,5.45
2018-07-14T10:03:57.796Z,9.70
2018-07-14T10:05:01.890Z,6.55
2018-07-14T10:06:06.019Z,5.55
2018-07-14T10:07:10.058Z,5.55
2018-07-14T10:08:14.043Z,5.95
2018-07-14T10:09:18.118Z,5.37
2018-07-14T10:10:22.119Z,5.92
2018-07-14T10:11:26.108Z,5.72
2018-07-14T10:12:30.189Z,6.05
2018-07-14T10:13:34.193Z,5.95
2018-07-14T10:14:38.198Z,5.58
2018-07-14T10:15:42.226Z,6.62
2018-07-14T10:16:46.315Z,5.75
2018-07-14T10:17:50.807Z,8.50
2018-07-14T10:18:54.822Z,7.00
2018-07-14T10:19:58.846Z,6.08
2018-07-14T10:21:02.842Z,6.22
2018-07-14T10:22:06.889Z,6.17
2018-07-14T10:23:10.931Z,5.95
2018-07-14T10:24:14.932Z,6.40
2018-07-14T10:25:19.040Z,5.70
2018-07-14T10:26:23.040Z,6.12
2018-07-14T10:27:27.053Z,5.22
2018-07-14T10:28:31.105Z,6.15
2018-07-14T10:29:35.151Z,6.70
2018-07-14T10:30:39.195Z,6.08
2018-07-14T10:31:43.181Z,5.90
2018-07-14T10:32:47.238Z,6.28
2018-07-14T10:33:51.378Z,6.15
2018-07-14T10:34:55.370Z,5.83
2018-07-14T10:35:59.378Z,6.40
2018-07-14T10:37:03.416Z,6.65
2018-07-14T10:38:07.614Z,6.05
2018-07-14T10:39:11.600Z,10.75
2018-07-14T10:40:15.633Z,5.83
2018-07-14T10:41:19.757Z,6.10
2018-07-14T10:42:23.766Z,5.92
2018-07-14T10:43:27.768Z,5.80
2018-07-14T10:44:31.830Z,6.28
2018-07-14T10:45:35.889Z,6.78
2018-07-14T10:46:39.954Z,5.87
2018-07-14T10:47:43.989Z,6.45
2018-07-14T10:48:48.027Z,6.50
2018-07-14T10:49:52.048Z,5.58
2018-07-14T10:50:56.042Z,11.18
2018-07-14T10:52:00.180Z,6.70
2018-07-14T10:53:04.257Z,5.80
2018-07-14T10:54:08.271Z,8.15
2018-07-14T10:55:12.279Z,6.47
2018-07-14T10:56:16.277Z,6.95
2018-07-14T10:57:20.279Z,5.60
2018-07-14T10:58:24.251Z,6.90
2018-07-14T10:59:28.246Z,6.00
2018-07-14T11:00:32.256Z,6.83
2018-07-14T11:01:36.258Z,6.05
2018-07-14T11:02:40.261Z,8.23
2018-07-14T11:03:44.446Z,5.92
2018-07-14T11:04:48.452Z,6.85
2018-07-14T11:05:52.467Z,6.78
2018-07-14T11:06:56.521Z,6.42
2018-07-14T11:08:00.534Z,6.40
2018-07-14T11:09:05.028Z,6.62
2018-07-14T11:10:09.039Z,6.53
2018-07-14T11:11:13.090Z,5.92
2018-07-14T11:12:17.095Z,6.33
2018-07-14T11:13:21.094Z,6.20
2018-07-14T11:14:25.131Z,6.90
2018-07-14T11:15:29.216Z,6.17
2018-07-14T11:16:33.473Z,7.45
2018-07-14T11:17:37.511Z,7.55
2018-07-14T11:18:41.499Z,6.58
2018-07-14T11:19:45.548Z,6.50
2018-07-14T11:20:49.604Z,6.80
2018-07-14T11:21:53.589Z,6.10
2018-07-14T11:22:57.587Z,6.35
2018-07-14T11:24:01.579Z,5.90
2018-07-14T11:25:05.589Z,6.72
2018-07-14T11:26:09.581Z,5.85
2018-07-14T11:27:13.629Z,6.95
2018-07-14T11:28:17.621Z,6.55
2018-07-14T11:29:21.660Z,7.15
2018-07-14T11:30:25.711Z,7.17
2018-07-14T11:31:29.789Z,8.48
2018-07-14T11:32:33.871Z,6.12
2018-07-14T11:33:37.865Z,10.63
2018-07-14T11:34:41.946Z,6.78
2018-07-14T11:35:45.894Z,7.00
2018-07-14T11:36:49.966Z,6.92
2018-07-14T11:37:54.062Z,7.17
2018-07-14T11:38:58.107Z,45.75
2018-07-14T11:40:02.123Z,46.70
2018-07-14T11:41:06.214Z,22.05
2018-07-14T11:42:10.247Z,13.13
2018-07-14T11:43:14.251Z,9.55
2018-07-14T11:44:18.294Z,10.75
2018-07-14T11:45:22.308Z,11.15
2018-07-14T11:46:26.333Z,11.55
2018-07-14T11:47:30.444Z,11.50
2018-07-14T11:48:34.413Z,11.68
2018-07-14T11:49:38.411Z,12.65
2018-07-14T11:50:42.504Z,10.38
2018-07-14T11:51:46.465Z,10.60
2018-07-14T11:52:50.489Z,8.38
2018-07-14T11:53:55.058Z,7.78
2018-07-14T11:54:59.084Z,11.53
2018-07-14T11:56:03.088Z,8.33
2018-07-14T11:57:07.235Z,7.78
2018-07-14T11:58:11.247Z,7.83
2018-07-14T11:59:15.280Z,7.83
2018-07-14T12:00:19.448Z,8.75
2018-07-14T12:01:23.455Z,6.90
2018-07-14T12:02:27.569Z,7.80
2018-07-14T12:03:31.645Z,9.13
2018-07-14T12:04:35.752Z,10.58
2018-07-14T12:05:39.760Z,8.48
2018-07-14T12:06:43.746Z,9.30
2018-07-14T12:07:47.761Z,9.20
2018-07-14T12:08:51.791Z,7.35
2018-07-14T12:09:55.823Z,7.03
2018-07-14T12:10:59.846Z,6.67
2018-07-14T12:12:04.522Z,10.15
2018-07-14T12:13:08.583Z,6.97
2018-07-14T12:14:12.591Z,6.90
2018-07-14T12:15:16.610Z,7.25
2018-07-14T12:16:20.754Z,13.70
2018-07-14T12:17:24.765Z,6.85
2018-07-14T12:18:28.769Z,7.17
2018-07-14T12:19:32.806Z,7.17
2018-07-14T12:20:36.855Z,5.37
2018-07-14T12:21:40.854Z,6.33
2018-07-14T12:22:44.874Z,6.25
2018-07-14T12:23:48.900Z,7.58
2018-07-14T12:24:52.915Z,7.05
2018-07-14T12:25:56.921Z,5.33
2018-07-14T12:27:01.177Z,6.92
2018-07-14T12:28:05.246Z,8.23
2018-07-14T12:29:09.232Z,7.67
2018-07-14T12:30:13.346Z,6.03
2018-07-14T12:31:17.307Z,8.43
2018-07-14T12:32:21.402Z,6.50
2018-07-14T12:33:25.459Z,5.22
2018-07-14T12:34:29.484Z,8.68
2018-07-14T12:35:33.497Z,8.95
2018-07-14T12:36:37.595Z,6.28
2018-07-14T12:37:41.640Z,6.10
2018-07-14T12:38:45.684Z,7.28
2018-07-14T12:39:49.711Z,4.10
2018-07-14T12:40:53.697Z,4.72
2018-07-14T12:41:57.677Z,4.70
2018-07-14T12:43:01.762Z,5.65
2018-07-14T12:44:05.750Z,4.80
2018-07-14T12:45:09.833Z,7.00
2018-07-14T12:46:13.795Z,5.60
2018-07-14T12:47:17.815Z,7.85
2018-07-14T12:48:21.816Z,4.20
2018-07-14T12:49:29.348Z,5.00
2018-07-14T12:50:33.561Z,4.53
2018-07-14T12:51:37.530Z,8.93
2018-07-14T12:52:41.607Z,4.92
2018-07-14T12:53:45.692Z,5.58
2018-07-14T12:54:49.654Z,3.85
2018-07-14T12:55:53.672Z,3.85
2018-07-14T12:56:57.703Z,4.35
2018-07-14T12:58:01.747Z,3.40
2018-07-14T12:59:05.961Z,4.08
2018-07-14T13:00:10.038Z,3.95
2018-07-14T13:01:14.061Z,4.17
2018-07-14T13:02:18.079Z,4.87
2018-07-14T13:03:22.118Z,5.28
2018-07-14T13:04:26.149Z,4.87
2018-07-14T13:05:30.201Z,5.45
2018-07-14T13:06:34.258Z,3.67
2018-07-14T13:07:38.358Z,4.25
2018-07-14T13:08:42.385Z,9.10
2018-07-14T13:09:46.454Z,3.80
2018-07-14T13:10:50.519Z,4.65
2018-07-14T13:11:54.660Z,3.92
2018-07-14T13:12:58.675Z,4.22
2018-07-14T13:14:02.710Z,4.58
2018-07-14T13:15:06.910Z,4.92
2018-07-14T13:16:10.911Z,3.90
2018-07-14T13:17:14.960Z,4.33
2018-07-14T13:18:18.981Z,3.75
2018-07-14T13:19:22.988Z,4.30
2018-07-14T13:20:27.178Z,5.50
2018-07-14T13:21:31.210Z,4.20
2018-07-14T13:22:35.214Z,4.03
2018-07-14T13:23:39.343Z,3.90
2018-07-14T13:24:43.396Z,4.25
2018-07-14T13:25:47.786Z,3.45
2018-07-14T13:26:51.829Z,4.37
2018-07-14T13:27:55.869Z,4.28
2018-07-14T13:28:59.967Z,3.55
2018-07-14T13:30:04.172Z,9.35
2018-07-14T13:31:08.124Z,4.47
2018-07-14T13:32:12.187Z,4.17
2018-07-14T13:33:16.291Z,5.20
2018-07-14T13:34:20.426Z,4.30
2018-07-14T13:35:24.432Z,4.15
2018-07-14T13:36:28.467Z,4.10
2018-07-14T13:37:32.536Z,4.78
2018-07-14T13:38:36.587Z,4.58
2018-07-14T13:39:40.911Z,4.03
2018-07-14T13:40:44.973Z,7.00
2018-07-14T13:41:48.971Z,5.08
2018-07-14T13:42:53.027Z,4.50
2018-07-14T13:43:57.100Z,4.25
2018-07-14T13:45:01.176Z,4.33
2018-07-14T13:46:05.303Z,4.50
2018-07-14T13:47:09.377Z,4.85
2018-07-14T13:48:13.375Z,6.33
2018-07-14T13:49:17.472Z,4.40
2018-07-14T13:50:21.486Z,3.98
2018-07-14T13:51:25.564Z,6.85
2018-07-14T13:52:29.632Z,4.00
2018-07-14T13:53:33.667Z,4.65
2018-07-14T13:54:37.668Z,5.78
2018-07-14T13:55:41.682Z,4.15
2018-07-14T13:56:45.703Z,4.10
2018-07-14T13:57:49.761Z,4.40
2018-07-14T13:58:53.799Z,3.22
2018-07-14T13:59:57.778Z,4.35
2018-07-14T14:01:01.883Z,4.10
2018-07-14T14:02:06.084Z,7.85
2018-07-14T14:03:10.100Z,3.45
2018-07-14T14:04:14.105Z,3.65
2018-07-14T14:05:18.108Z,3.60
2018-07-14T14:06:22.141Z,4.72
2018-07-14T14:07:26.136Z,4.17
2018-07-14T14:08:30.275Z,5.08
2018-07-14T14:09:34.319Z,3.42